Losser, Netherlands
Current Conditions -  °F | °C
As of 12:20 AM on Tuesday 23 Dec 2014 (Local Time) from EDDG Reporting Station
Light Rain Light Rain  
Wind Chill: 52°   Ceiling: 2400
Heat Index: 52°   Visibility: 6mi
Dew Point: 48°   Wind: 20mph
Humidity: 88%   Direction: 240°WSW
Pressure: 29.97"   Gusts: NA
Location:  52.26°N, 7°E
Report Text: EDDG 222320Z 24017KT 9999 -RA SCT018 BKN024 11/09 Q1015 NOSIG
Loading
Personal Weather Stations






























Interactive Weather Map New forecast layout! Learn more

10-Day Weather Forecast

Advertisements
Track Severe Weather on mobile